Time;durP1;ratioP1;P1;durP2;ratioP2;P2;SDS_P1;SDS_P2;PMS_P1;PMS_P2;Temp;Humidity;BMP_temperature;BMP_pressure;BME280_temperature;BME280_humidity;BME280_pressure;Samples;Min_cycle;Max_cycle;Signal;HPM_P1;HPM_P2
2021/04/06 00:02:16;;;;;;;1.65;0.75;;;0.40;99.90;;;;;;5044366;28;20112;-72
2021/04/06 00:04:46;;;;;;;2.08;0.85;;;0.30;99.90;;;;;;5042935;28;20041;-70
2021/04/06 00:07:15;;;;;;;1.65;0.95;;;0.30;99.90;;;;;;5043132;28;20461;-72
2021/04/06 00:09:43;;;;;;;1.33;0.63;;;0.20;99.90;;;;;;5044152;28;20029;-70
2021/04/06 00:12:10;;;;;;;0.85;0.82;;;0.30;99.90;;;;;;5044109;28;20029;-70
2021/04/06 00:14:38;;;;;;;2.55;0.98;;;0.20;99.90;;;;;;5042835;28;20052;-70
2021/04/06 00:17:07;;;;;;;5.35;0.98;;;0.30;99.90;;;;;;5043751;28;20038;-71
2021/04/06 00:19:38;;;;;;;1.60;0.82;;;0.20;99.90;;;;;;5044561;28;20468;-71
2021/04/06 00:22:06;;;;;;;2.05;1.40;;;0.20;99.90;;;;;;5048092;28;20030;-72
2021/04/06 00:24:35;;;;;;;1.67;1.35;;;0.10;99.90;;;;;;5048064;28;20049;-71
2021/04/06 00:27:17;;;;;;;2.88;0.63;;;0.10;99.90;;;;;;5047970;28;20029;-74
2021/04/06 00:29:46;;;;;;;7.55;1.42;;;0.10;99.90;;;;;;5047635;28;20029;-70
2021/04/06 00:32:15;;;;;;;7.18;1.13;;;0.10;99.90;;;;;;5047520;28;20030;-71
2021/04/06 00:34:41;;;;;;;1.77;0.70;;;0.00;99.90;;;;;;5047757;28;20041;-71
2021/04/06 00:37:12;;;;;;;2.17;0.82;;;0.10;99.90;;;;;;5047475;28;20038;-72
2021/04/06 00:39:40;;;;;;;1.70;1.00;;;0.10;99.90;;;;;;5047684;28;20112;-72
2021/04/06 00:42:08;;;;;;;1.52;0.82;;;0.00;99.90;;;;;;5047742;28;20033;-72
2021/04/06 00:44:48;;;;;;;1.55;1.27;;;0.10;99.90;;;;;;5047718;28;20167;-72
2021/04/06 00:47:15;;;;;;;2.03;1.27;;;0.00;99.90;;;;;;5047442;28;20030;-73
2021/04/06 00:49:42;;;;;;;2.88;1.08;;;0.00;99.90;;;;;;5047286;28;20025;-71
2021/04/06 00:52:10;;;;;;;1.90;1.15;;;0.00;99.90;;;;;;5047525;28;20057;-70
2021/04/06 00:54:37;;;;;;;2.58;1.40;;;0.00;99.90;;;;;;5046321;28;20045;-73
2021/04/06 00:57:06;;;;;;;3.55;1.70;;;0.00;99.90;;;;;;5047282;28;20049;-71
2021/04/06 00:59:34;;;;;;;4.47;1.52;;;0.00;99.90;;;;;;5047367;28;20017;-71
2021/04/06 01:02:08;;;;;;;3.53;0.77;;;0.00;99.90;;;;;;5047413;28;20026;-73
2021/04/06 01:04:38;;;;;;;2.53;1.38;;;0.00;99.90;;;;;;5047288;28;20026;-70
2021/04/06 01:07:16;;;;;;;1.83;1.10;;;0.00;99.90;;;;;;5047298;28;20022;-72
2021/04/06 01:09:46;;;;;;;3.20;1.33;;;0.00;99.90;;;;;;5047119;28;20037;-70
2021/04/06 01:12:15;;;;;;;4.13;1.15;;;0.00;99.90;;;;;;5047164;28;20090;-71
2021/04/06 01:14:43;;;;;;;4.07;1.13;;;0.00;99.90;;;;;;5046932;28;20093;-72
2021/04/06 01:17:11;;;;;;;2.75;1.35;;;0.00;99.90;;;;;;5045008;28;20466;-71
2021/04/06 01:19:38;;;;;;;0.75;0.63;;;0.00;99.90;;;;;;5047011;28;20026;-72
2021/04/06 01:22:10;;;;;;;2.97;1.48;;;0.00;99.90;;;;;;5046968;28;20044;-71
2021/04/06 01:24:37;;;;;;;2.20;1.10;;;-0.10;99.90;;;;;;5046956;28;20026;-71
2021/04/06 01:27:07;;;;;;;9.65;1.05;;;-0.10;99.90;;;;;;5046767;28;20029;-73
2021/04/06 01:29:36;;;;;;;2.25;0.98;;;-0.10;99.90;;;;;;5045154;28;20489;-72
2021/04/06 01:32:03;;;;;;;3.40;1.27;;;0.00;99.90;;;;;;5044967;28;20429;-71
2021/04/06 01:34:30;;;;;;;4.53;0.77;;;0.00;99.90;;;;;;5046607;28;20085;-72
2021/04/06 01:36:57;;;;;;;3.67;1.45;;;0.00;99.90;;;;;;5045104;28;20032;-71
2021/04/06 01:39:29;;;;;;;2.17;1.02;;;-0.10;99.90;;;;;;5046449;28;20655;-71
2021/04/06 01:42:06;;;;;;;4.45;1.23;;;0.00;99.90;;;;;;5045397;28;20084;-72
2021/04/06 01:44:36;;;;;;;10.35;2.67;;;0.00;99.90;;;;;;5046749;28;20096;-72
2021/04/06 01:47:02;;;;;;;5.15;1.70;;;-0.10;99.90;;;;;;5046483;28;20096;-72
2021/04/06 01:49:32;;;;;;;3.25;1.15;;;0.00;99.90;;;;;;5046423;28;20029;-72
2021/04/06 01:52:02;;;;;;;6.00;0.93;;;-0.10;99.90;;;;;;5046408;28;20026;-70
2021/04/06 01:54:28;;;;;;;4.50;0.90;;;0.00;99.90;;;;;;5046571;28;20061;-71
2021/04/06 01:56:59;;;;;;;3.28;1.30;;;0.00;99.90;;;;;;5046059;28;20022;-71
2021/04/06 01:59:31;;;;;;;3.58;0.98;;;0.00;99.90;;;;;;5046345;28;20037;-71
2021/04/06 02:01:59;;;;;;;5.88;1.45;;;0.00;99.90;;;;;;5046349;28;20025;-71
2021/04/06 02:04:26;;;;;;;3.33;1.17;;;0.00;99.90;;;;;;5046022;28;20092;-70
2021/04/06 02:06:53;;;;;;;4.97;1.67;;;0.00;99.90;;;;;;5044718;28;20061;-71
2021/04/06 02:09:20;;;;;;;0.30;0.30;;;0.00;99.90;;;;;;5045968;28;20048;-71
2021/04/06 02:11:46;;;;;;;5.65;0.80;;;0.10;99.90;;;;;;5045632;28;20044;-70
2021/04/06 02:14:18;;;;;;;2.20;1.48;;;0.10;99.90;;;;;;5044723;28;20036;-70
2021/04/06 02:17:04;;;;;;;1.17;0.93;;;0.10;99.90;;;;;;5045711;28;20085;-71
2021/04/06 02:19:40;;;;;;;10.52;1.15;;;0.20;99.90;;;;;;5044697;28;20207;-72
2021/04/06 02:22:10;;;;;;;8.95;0.85;;;0.30;99.90;;;;;;5045841;28;20060;-71
2021/04/06 02:24:40;;;;;;;2.50;1.27;;;0.30;99.90;;;;;;5045536;28;20045;-71
2021/04/06 02:27:21;;;;;;;2.22;0.90;;;0.40;99.90;;;;;;5045398;28;20036;-70
2021/04/06 02:30:08;;;;;;;4.03;0.88;;;0.40;99.90;;;;;;5045644;28;20018;-71
2021/04/06 02:32:35;;;;;;;0.90;0.52;;;0.50;99.90;;;;;;5044421;28;20030;-70
2021/04/06 02:35:13;;;;;;;1.33;0.85;;;0.50;99.90;;;;;;5044194;28;20032;-71
2021/04/06 02:37:43;;;;;;;4.85;1.20;;;0.60;99.90;;;;;;5045164;28;20535;-73
2021/04/06 02:40:11;;;;;;;1.77;0.77;;;0.60;99.90;;;;;;5043856;28;20091;-71
2021/04/06 02:42:47;;;;;;;1.00;0.50;;;0.60;99.90;;;;;;5042990;28;20092;-71
2021/04/06 02:45:15;;;;;;;4.43;0.82;;;0.50;99.90;;;;;;5045166;28;20085;-70
2021/04/06 02:47:45;;;;;;;4.65;0.90;;;0.50;99.90;;;;;;5045109;28;20025;-71
2021/04/06 02:50:14;;;;;;;7.63;0.73;;;0.50;99.90;;;;;;5045225;28;20029;-71
2021/04/06 02:52:40;;;;;;;1.00;0.90;;;0.50;99.90;;;;;;5045110;28;20071;-71
2021/04/06 02:55:09;;;;;;;0.45;0.10;;;0.50;99.90;;;;;;5043630;28;20032;-72
2021/04/06 02:57:41;;;;;;;2.60;0.93;;;0.50;99.90;;;;;;5045109;28;20387;-72
2021/04/06 03:00:07;;;;;;;1.10;0.40;;;0.50;99.90;;;;;;5045141;28;20450;-71
2021/04/06 03:02:40;;;;;;;2.13;0.70;;;0.50;99.90;;;;;;5043721;28;20079;-73
2021/04/06 03:05:07;;;;;;;1.42;0.82;;;0.50;99.90;;;;;;5045042;28;20053;-72
2021/04/06 03:07:45;;;;;;;10.00;1.55;;;0.50;99.90;;;;;;5045037;28;20029;-72
2021/04/06 03:10:18;;;;;;;1.02;0.47;;;0.50;99.90;;;;;;5044854;28;20470;-72
2021/04/06 03:12:47;;;;;;;0.75;0.40;;;0.70;99.90;;;;;;5044941;28;20025;-72
2021/04/06 03:15:13;;;;;;;6.03;0.65;;;0.70;99.90;;;;;;5044833;28;20105;-70
2021/04/06 03:17:49;;;;;;;0.52;0.35;;;0.60;99.90;;;;;;5044309;28;20487;-70
2021/04/06 03:20:18;;;;;;;15.25;1.27;;;0.70;99.90;;;;;;5044631;28;20032;-72
2021/04/06 03:22:43;;;;;;;9.65;0.90;;;0.60;99.90;;;;;;5044718;28;20048;-71
2021/04/06 03:25:11;;;;;;;0.50;0.50;;;0.70;99.90;;;;;;5044329;28;20105;-70
2021/04/06 03:27:47;;;;;;;5.22;1.25;;;0.70;99.90;;;;;;5044717;28;20030;-72
2021/04/06 03:30:15;;;;;;;1.35;0.40;;;0.70;99.90;;;;;;5044734;28;20030;-71
2021/04/06 03:32:41;;;;;;;9.77;1.02;;;0.70;99.90;;;;;;5044512;28;20394;-71
2021/04/06 03:35:11;;;;;;;2.88;1.00;;;0.70;99.90;;;;;;5044568;28;20083;-70
2021/04/06 03:37:39;;;;;;;1.08;0.98;;;0.70;99.90;;;;;;5044644;28;20128;-70
2021/04/06 03:40:06;;;;;;;2.60;0.85;;;0.90;99.90;;;;;;5044783;28;20089;-71
2021/04/06 03:42:36;;;;;;;1.38;0.40;;;0.80;99.90;;;;;;5044956;28;20026;-69
2021/04/06 03:45:11;;;;;;;2.42;1.15;;;0.80;99.90;;;;;;5044815;28;20025;-70
2021/04/06 03:47:55;;;;;;;5.75;2.03;;;0.90;99.90;;;;;;5044681;28;20030;-69
2021/04/06 03:50:39;;;;;;;4.03;0.88;;;0.90;99.90;;;;;;5043001;28;20026;-69
2021/04/06 03:53:11;;;;;;;11.68;1.42;;;0.90;99.90;;;;;;5044634;28;20039;-70
2021/04/06 03:55:39;;;;;;;4.78;0.75;;;0.90;99.90;;;;;;5047270;28;20471;-70
2021/04/06 03:58:23;;;;;;;8.88;1.08;;;0.90;99.90;;;;;;5048244;28;20029;-69
2021/04/06 04:00:48;;;;;;;2.45;1.08;;;1.00;99.90;;;;;;5046920;28;20022;-70
2021/04/06 04:03:17;;;;;;;1.90;0.93;;;0.80;99.90;;;;;;5046838;28;20448;-69
2021/04/06 04:05:43;;;;;;;7.00;1.10;;;0.80;99.90;;;;;;5048318;28;20474;-70
2021/04/06 04:08:08;;;;;;;2.75;0.30;;;0.80;99.90;;;;;;5048244;28;20055;-69
2021/04/06 04:10:35;;;;;;;2.92;1.30;;;0.70;99.90;;;;;;5048408;28;20032;-71
2021/04/06 04:13:02;;;;;;;8.65;1.60;;;0.70;99.90;;;;;;5048063;28;20030;-72
2021/04/06 04:15:27;;;;;;;4.30;0.65;;;0.70;99.90;;;;;;5048159;28;20042;-68
2021/04/06 04:17:53;;;;;;;0.45;0.35;;;;;;;;;;5047899;28;20117;-68
2021/04/06 04:20:21;;;;;;;13.32;2.08;;;0.70;99.90;;;;;;5047778;28;20370;-68
2021/04/06 04:22:48;;;;;;;10.40;1.70;;;0.70;99.90;;;;;;5047971;28;20028;-69
2021/04/06 04:25:15;;;;;;;1.67;0.80;;;0.70;99.90;;;;;;5046520;28;20391;-68
2021/04/06 04:27:41;;;;;;;0.82;0.55;;;0.70;99.90;;;;;;5047707;28;20107;-69
2021/04/06 04:30:08;;;;;;;2.38;0.52;;;0.70;99.90;;;;;;5046409;28;20029;-68
2021/04/06 04:32:34;;;;;;;6.43;1.30;;;0.80;99.90;;;;;;5047811;28;20021;-69
2021/04/06 04:35:01;;;;;;;3.10;1.17;;;0.80;99.90;;;;;;5047870;28;20030;-70
2021/04/06 04:37:27;;;;;;;1.92;1.08;;;0.80;99.90;;;;;;5046534;28;20042;-70
2021/04/06 04:39:52;;;;;;;2.97;0.95;;;0.90;99.90;;;;;;5047555;28;20036;-70
2021/04/06 04:42:18;;;;;;;2.05;0.47;;;0.90;99.90;;;;;;5047514;28;20026;-70
2021/04/06 04:44:44;;;;;;;2.33;0.93;;;0.90;99.90;;;;;;5047293;28;20025;-71
2021/04/06 04:47:10;;;;;;;4.40;0.88;;;0.90;99.90;;;;;;5047413;28;20096;-70
2021/04/06 04:49:36;;;;;;;6.40;0.40;;;0.90;99.90;;;;;;5046118;28;20028;-72
2021/04/06 04:52:04;;;;;;;6.68;1.58;;;0.90;99.90;;;;;;5047652;28;20081;-71
2021/04/06 04:54:30;;;;;;;1.70;0.63;;;0.80;99.90;;;;;;5046283;28;20022;-71
2021/04/06 04:56:56;;;;;;;10.85;1.15;;;0.80;99.90;;;;;;5045730;28;20026;-70
2021/04/06 04:59:21;;;;;;;9.30;1.45;;;0.80;99.90;;;;;;5047058;28;20057;-70
2021/04/06 05:01:47;;;;;;;3.90;0.68;;;0.80;99.90;;;;;;5046845;28;20026;-71
2021/04/06 05:04:13;;;;;;;6.95;0.70;;;0.70;99.90;;;;;;5046827;28;20031;-72
2021/04/06 05:06:39;;;;;;;1.05;0.80;;;0.70;99.90;;;;;;5045810;28;20092;-73
2021/04/06 05:09:06;;;;;;;3.35;1.38;;;0.70;99.90;;;;;;5046901;28;20032;-71
2021/04/06 05:11:35;;;;;;;4.82;1.40;;;0.60;99.90;;;;;;5046775;28;20028;-72
2021/04/06 05:14:06;;;;;;;3.22;1.35;;;0.60;99.90;;;;;;5045437;28;20033;-71
2021/04/06 05:16:32;;;;;;;3.08;0.93;;;0.60;99.90;;;;;;5046691;28;20138;-71
2021/04/06 05:18:57;;;;;;;3.28;0.63;;;0.60;99.90;;;;;;5046320;28;20145;-71
2021/04/06 05:21:23;;;;;;;1.48;0.80;;;0.70;99.90;;;;;;5046541;28;20084;-70
2021/04/06 05:23:48;;;;;;;1.13;0.68;;;0.60;99.90;;;;;;5046301;28;20043;-70
2021/04/06 05:26:14;;;;;;;19.95;1.65;;;0.60;99.90;;;;;;5044970;28;20049;-70
2021/04/06 05:28:40;;;;;;;1.58;0.75;;;0.60;99.90;;;;;;5046569;28;20034;-70
2021/04/06 05:31:06;;;;;;;2.60;1.58;;;0.70;99.90;;;;;;5045295;28;20056;-69
2021/04/06 05:33:34;;;;;;;1.90;1.08;;;0.70;99.90;;;;;;5046617;28;20033;-70
2021/04/06 05:36:04;;;;;;;2.17;1.27;;;0.70;99.90;;;;;;5046379;28;20036;-71
2021/04/06 05:38:31;;;;;;;1.95;0.82;;;0.80;99.90;;;;;;5046593;28;20041;-71
2021/04/06 05:40:57;;;;;;;1.45;0.60;;;0.80;99.90;;;;;;5046529;28;20048;-70
2021/04/06 05:43:24;;;;;;;1.75;0.57;;;0.90;99.90;;;;;;5046166;28;20036;-69
2021/04/06 05:45:52;;;;;;;5.20;1.25;;;0.90;99.90;;;;;;5044718;28;20053;-71
2021/04/06 05:48:18;;;;;;;1.55;0.63;;;0.90;99.90;;;;;;5046022;28;20026;-71
2021/04/06 05:50:46;;;;;;;7.65;1.33;;;1.00;99.90;;;;;;5044315;28;20041;-71
2021/04/06 05:53:12;;;;;;;4.93;1.67;;;1.00;99.90;;;;;;5045616;28;20108;-70
2021/04/06 05:55:39;;;;;;;3.90;1.35;;;1.00;99.90;;;;;;5045947;28;20029;-70
2021/04/06 05:58:06;;;;;;;1.83;0.80;;;1.00;99.90;;;;;;5045516;28;20069;-71
2021/04/06 06:00:32;;;;;;;7.90;1.63;;;1.00;99.90;;;;;;5045879;28;20030;-71
2021/04/06 06:03:00;;;;;;;8.85;2.30;;;1.00;99.90;;;;;;5046019;28;20030;-71
2021/04/06 06:05:25;;;;;;;4.13;1.15;;;1.00;99.90;;;;;;5045906;28;20524;-71
2021/04/06 06:07:51;;;;;;;2.15;1.10;;;1.00;99.90;;;;;;5045505;28;20030;-70
2021/04/06 06:10:31;;;;;;;4.72;1.33;;;1.10;99.90;;;;;;5045524;28;20064;-73
2021/04/06 06:13:18;;;;;;;2.53;0.85;;;1.10;99.90;;;;;;5044054;28;20030;-71
2021/04/06 06:16:06;;;;;;;2.28;0.68;;;1.20;99.90;;;;;;5028056;28;20050;-70
2021/04/06 06:18:33;;;;;;;5.93;0.70;;;1.20;99.90;;;;;;5034999;28;20072;-71
2021/04/06 06:21:02;;;;;;;4.50;0.95;;;1.30;99.90;;;;;;5045735;28;20033;-71
2021/04/06 06:23:27;;;;;;;8.57;0.88;;;1.40;99.90;;;;;;5045423;28;20033;-72
2021/04/06 06:26:22;;;;;;;4.78;1.15;;;1.50;99.90;;;;;;5043664;28;20033;-71
2021/04/06 06:29:09;;;;;;;4.43;1.45;;;1.60;99.90;;;;;;5045339;28;20030;-69
2021/04/06 06:31:47;;;;;;;2.30;0.95;;;1.70;99.90;;;;;;5045159;28;20030;-70
2021/04/06 06:34:34;;;;;;;6.25;1.45;;;1.80;99.90;;;;;;5045138;28;20039;-71
2021/04/06 06:37:12;;;;;;;2.05;1.00;;;1.90;99.90;;;;;;5043928;28;20018;-71
2021/04/06 06:40:00;;;;;;;3.80;1.27;;;2.10;99.90;;;;;;5045098;28;20033;-72
2021/04/06 06:42:38;;;;;;;2.92;1.30;;;2.30;99.90;;;;;;5045370;28;20467;-71
2021/04/06 06:45:23;;;;;;;3.92;1.00;;;2.50;99.90;;;;;;5045120;28;20075;-72
2021/04/06 06:47:55;;;;;;;;;;;2.60;99.90;;;;;;5045203;28;20032;-71
2021/04/06 06:50:20;;;;;;;3.28;0.70;;;2.50;99.90;;;;;;5044699;28;19905;-71
2021/04/06 06:52:52;;;;;;;10.95;1.35;;;2.50;99.90;;;;;;5044980;28;20060;-70
2021/04/06 06:55:26;;;;;;;11.50;2.20;;;2.50;99.90;;;;;;5043830;28;20029;-70
2021/04/06 06:58:06;;;;;;;3.33;0.57;;;2.30;99.90;;;;;;5043713;28;20045;-71
2021/04/06 07:00:32;;;;;;;11.55;2.22;;;2.30;99.90;;;;;;5045054;28;20030;-73
2021/04/06 07:02:58;;;;;;;1.38;0.47;;;2.30;99.90;;;;;;5045203;28;20026;-71
2021/04/06 07:05:26;;;;;;;6.85;1.80;;;2.30;99.90;;;;;;5044743;28;20088;-72
2021/04/06 07:08:05;;;;;;;7.57;1.13;;;2.40;99.90;;;;;;5044815;28;20037;-71
2021/04/06 07:10:37;;;;;;;5.25;1.70;;;2.50;99.90;;;;;;5044879;28;20089;-72
2021/04/06 07:13:11;;;;;;;5.80;1.38;;;2.50;99.90;;;;;;5043607;28;20053;-72
2021/04/06 07:15:40;;;;;;;;;;;2.50;99.90;;;;;;5045050;28;20445;-71
2021/04/06 07:18:13;;;;;;;3.00;0.88;;;2.60;99.90;;;;;;5044366;28;19932;-72
2021/04/06 07:20:43;;;;;;;2.97;1.37;;;2.50;99.90;;;;;;5040477;28;20026;-71
2021/04/06 07:23:13;;;;;;;8.50;1.60;;;2.70;99.90;;;;;;5044538;28;20036;-72
2021/04/06 07:25:42;;;;;;;4.35;1.52;;;2.80;99.90;;;;;;5043718;28;20029;-70
2021/04/06 07:28:09;;;;;;;2.40;1.05;;;2.90;99.90;;;;;;5043911;28;20021;-71
2021/04/06 07:30:37;;;;;;;2.85;0.80;;;2.80;99.90;;;;;;5044402;28;20025;-74
2021/04/06 07:33:04;;;;;;;11.07;1.40;;;2.60;99.90;;;;;;5044407;28;20029;-71
2021/04/06 07:35:31;;;;;;;2.67;0.85;;;2.50;99.90;;;;;;5043340;28;20025;-73
2021/04/06 07:37:57;;;;;;;2.78;1.08;;;2.50;99.90;;;;;;5044373;28;20041;-71
2021/04/06 07:40:25;;;;;;;3.60;1.05;;;2.50;99.90;;;;;;5042915;28;20032;-73
2021/04/06 07:42:52;;;;;;;2.75;0.80;;;2.40;99.90;;;;;;5044242;28;20030;-72
2021/04/06 07:45:24;;;;;;;3.60;0.90;;;2.50;99.90;;;;;;5044429;28;20026;-71
2021/04/06 07:47:51;;;;;;;1.52;0.47;;;2.60;99.90;;;;;;5043926;28;20394;-71
2021/04/06 07:50:44;;;;;;;2.45;1.00;;;2.80;99.90;;;;;;5044121;28;20040;-71
2021/04/06 07:53:20;;;;;;;7.00;1.35;;;2.90;99.90;;;;;;5044482;28;20033;-71
2021/04/06 07:55:46;;;;;;;2.92;1.02;;;3.00;99.90;;;;;;5044289;28;20025;-72
2021/04/06 07:58:47;;;;;;;3.45;1.08;;;3.10;99.90;;;;;;5044258;28;20041;-70
2021/04/06 08:01:27;;;;;;;1.17;0.93;;;3.10;99.90;;;;;;5043641;28;20033;-72
2021/04/06 08:03:53;;;;;;;3.25;1.35;;;3.00;99.90;;;;;;5044318;28;20033;-72
2021/04/06 08:06:20;;;;;;;2.53;1.02;;;3.10;99.90;;;;;;5044206;28;20106;-71
2021/04/06 08:08:46;;;;;;;3.10;0.95;;;3.20;99.90;;;;;;5044039;28;20029;-72
2021/04/06 08:11:11;;;;;;;4.57;1.27;;;3.30;99.90;;;;;;5044201;28;20013;-71
2021/04/06 08:13:42;;;;;;;2.47;0.85;;;3.50;99.90;;;;;;5044104;28;20025;-73
2021/04/06 08:16:16;;;;;;;3.63;0.70;;;3.70;99.90;;;;;;5042843;28;20045;-73
2021/04/06 08:18:53;;;;;;;1.30;0.73;;;4.00;99.90;;;;;;5042435;28;20053;-72
2021/04/06 08:21:23;;;;;;;13.15;1.25;;;4.20;99.90;;;;;;5043647;28;20116;-73
2021/04/06 08:23:49;;;;;;;2.33;1.02;;;4.30;99.90;;;;;;5044171;28;20029;-70
2021/04/06 08:26:30;;;;;;;3.35;1.30;;;4.40;99.90;;;;;;5043797;28;20029;-72
2021/04/06 08:28:56;;;;;;;2.05;0.57;;;4.40;99.90;;;;;;5044130;28;20076;-72
2021/04/06 08:31:28;;;;;;;2.38;0.88;;;4.20;99.90;;;;;;5043855;28;20025;-72
2021/04/06 08:34:14;;;;;;;6.88;1.20;;;4.30;99.90;;;;;;5043863;28;20032;-74
2021/04/06 08:36:40;;;;;;;0.75;0.57;;;4.50;99.90;;;;;;5042318;28;20076;-74
2021/04/06 08:39:07;;;;;;;5.05;1.10;;;4.70;99.90;;;;;;5042546;28;20045;-74
2021/04/06 08:41:35;;;;;;;0.68;0.50;;;5.00;99.90;;;;;;5041205;28;20029;-75
2021/04/06 08:44:05;;;;;;;3.33;1.20;;;5.20;99.90;;;;;;5046759;28;20055;-72
2021/04/06 08:46:37;;;;;;;2.08;0.80;;;5.30;99.90;;;;;;5044102;28;20036;-71
2021/04/06 08:49:24;;;;;;;4.22;0.60;;;5.20;99.90;;;;;;5044564;28;20105;-71
2021/04/06 08:52:00;;;;;;;0.85;0.57;;;5.00;99.90;;;;;;5044722;28;20089;-74
2021/04/06 08:54:30;;;;;;;1.55;0.60;;;5.00;99.90;;;;;;5045767;28;20033;-73
2021/04/06 08:56:58;;;;;;;2.95;1.08;;;4.80;99.90;;;;;;5046663;28;20037;-73
2021/04/06 08:59:34;;;;;;;2.10;0.63;;;4.90;99.90;;;;;;5044930;28;20037;-73
2021/04/06 09:02:04;;;;;;;1.20;0.50;;;5.00;99.90;;;;;;5046746;28;20022;-74
2021/04/06 09:04:39;;;;;;;2.20;0.65;;;5.10;99.90;;;;;;5044051;28;20033;-74
2021/04/06 09:07:21;;;;;;;1.25;0.38;;;5.30;99.90;;;;;;5042866;28;20029;-73
2021/04/06 09:09:50;;;;;;;1.23;0.40;;;5.50;99.90;;;;;;5045411;28;20094;-73
2021/04/06 09:12:16;;;;;;;1.95;0.85;;;5.80;99.90;;;;;;5046211;28;20041;-72
2021/04/06 09:14:43;;;;;;;1.98;0.43;;;6.10;99.90;;;;;;5046345;28;20021;-74
2021/04/06 09:17:09;;;;;;;1.90;0.88;;;5.70;99.90;;;;;;5045870;28;20049;-74
2021/04/06 09:19:37;;;;;;;3.28;0.82;;;5.60;99.90;;;;;;5045996;28;20109;-71
2021/04/06 09:22:09;;;;;;;1.95;1.17;;;5.00;99.90;;;;;;5046261;28;20033;-72
2021/04/06 09:24:37;;;;;;;5.10;1.33;;;4.60;99.90;;;;;;5046226;28;20030;-72
2021/04/06 09:27:03;;;;;;;3.25;0.73;;;4.30;99.90;;;;;;5046214;28;20036;-73
2021/04/06 09:29:36;;;;;;;1.23;0.68;;;4.10;99.90;;;;;;5046229;28;20034;-75
2021/04/06 09:32:11;;;;;;;3.67;1.00;;;4.10;99.90;;;;;;5046196;28;20052;-72
2021/04/06 09:34:42;;;;;;;2.45;1.42;;;4.00;99.90;;;;;;5045934;28;20045;-74
2021/04/06 09:37:13;;;;;;;2.15;0.75;;;4.00;99.90;;;;;;5046413;28;20040;-71
2021/04/06 09:39:45;;;;;;;4.13;0.70;;;4.30;99.90;;;;;;5044371;28;20769;-72
2021/04/06 09:42:12;;;;;;;2.45;1.25;;;4.60;99.90;;;;;;5045640;28;20092;-72
2021/04/06 09:44:40;;;;;;;0.95;0.63;;;5.10;99.90;;;;;;5045671;28;20056;-73
2021/04/06 09:47:08;;;;;;;0.63;0.50;;;5.60;99.90;;;;;;5045935;28;20032;-72
2021/04/06 09:49:40;;;;;;;2.33;1.08;;;6.00;99.90;;;;;;5044334;28;20033;-70
2021/04/06 09:52:11;;;;;;;3.40;0.80;;;6.40;99.90;;;;;;5043790;28;20025;-71
2021/04/06 09:54:42;;;;;;;9.50;1.88;;;6.70;99.90;;;;;;5044900;28;20029;-72
2021/04/06 09:57:10;;;;;;;3.53;0.85;;;7.00;99.90;;;;;;5044687;28;20021;-72
2021/04/06 09:59:38;;;;;;;8.10;1.33;;;7.10;99.90;;;;;;5045102;28;20029;-74
2021/04/06 10:02:05;;;;;;;2.53;0.95;;;7.40;99.90;;;;;;5045011;28;20036;-73
2021/04/06 10:04:35;;;;;;;3.33;0.93;;;7.60;99.90;;;;;;5044907;28;20032;-74
2021/04/06 10:07:14;;;;;;;3.03;1.38;;;7.50;99.90;;;;;;5044842;28;20088;-73
2021/04/06 10:09:43;;;;;;;1.80;0.88;;;7.20;99.90;;;;;;5045330;28;20029;-71
2021/04/06 10:12:11;;;;;;;2.38;0.80;;;7.00;99.90;;;;;;5045008;28;20089;-74
2021/04/06 10:14:38;;;;;;;4.28;1.00;;;6.60;99.90;;;;;;5043857;28;20130;-74
2021/04/06 10:17:07;;;;;;;8.13;1.58;;;6.20;99.90;;;;;;5045149;28;20112;-73
2021/04/06 10:19:35;;;;;;;4.25;1.23;;;5.90;99.90;;;;;;5043875;28;20077;-74
2021/04/06 10:22:04;;;;;;;1.45;0.68;;;5.30;99.90;;;;;;5044397;28;20022;-74
2021/04/06 10:24:33;;;;;;;0.68;0.40;;;4.40;99.90;;;;;;5043901;28;20026;-75
2021/04/06 10:27:10;;;;;;;2.05;0.77;;;3.80;99.90;;;;;;5045309;28;20057;-72
2021/04/06 10:29:37;;;;;;;3.63;0.77;;;3.40;99.90;;;;;;5045037;28;20455;-72
2021/04/06 10:32:04;;;;;;;2.10;0.65;;;3.00;99.90;;;;;;5043666;28;20052;-72
2021/04/06 10:34:31;;;;;;;1.73;0.70;;;2.80;99.90;;;;;;5043297;28;20025;-73
2021/04/06 10:36:58;;;;;;;2.55;0.80;;;2.80;99.90;;;;;;5044830;28;20029;-72
2021/04/06 10:39:36;;;;;;;0.77;0.40;;;2.90;99.90;;;;;;5044329;28;20124;-72
2021/04/06 10:42:04;;;;;;;1.55;0.90;;;2.90;99.90;;;;;;5043421;28;20030;-73
2021/04/06 10:44:30;;;;;;;9.15;0.75;;;3.00;99.90;;;;;;5044755;28;20029;-72
2021/04/06 10:46:57;;;;;;;1.63;0.47;;;3.30;99.90;;;;;;5044497;28;20051;-72
2021/04/06 10:49:22;;;;;;;2.17;0.65;;;3.80;99.90;;;;;;5044509;28;20025;-72
2021/04/06 10:51:51;;;;;;;3.45;0.85;;;4.40;99.90;;;;;;5044817;28;20052;-72
2021/04/06 10:54:18;;;;;;;1.35;0.60;;;5.00;99.90;;;;;;5039683;28;20021;-74
2021/04/06 10:56:55;;;;;;;7.03;0.80;;;5.40;99.90;;;;;;5042247;28;20028;-72
2021/04/06 10:59:37;;;;;;;3.05;0.98;;;6.00;99.90;;;;;;5044363;28;20132;-72
2021/04/06 11:02:03;;;;;;;6.22;1.73;;;6.40;99.90;;;;;;5043238;28;20034;-73
2021/04/06 11:04:41;;;;;;;2.00;0.93;;;6.90;99.90;;;;;;5043897;28;20068;-69
2021/04/06 11:07:09;;;;;;;3.35;0.73;;;7.10;99.90;;;;;;5044544;28;20021;-71
2021/04/06 11:09:46;;;;;;;2.88;0.70;;;6.80;99.90;;;;;;5044573;28;20081;-72
2021/04/06 11:12:13;;;;;;;1.35;0.88;;;6.40;99.90;;;;;;5043978;28;20029;-73
2021/04/06 11:14:44;;;;;;;3.92;0.98;;;5.80;99.90;;;;;;5042849;28;20025;-72
2021/04/06 11:17:11;;;;;;;3.25;0.85;;;5.40;99.90;;;;;;5043974;28;20033;-72
2021/04/06 11:19:43;;;;;;;1.65;0.73;;;5.00;99.90;;;;;;5044055;28;20053;-71
2021/04/06 11:22:12;;;;;;;2.50;0.77;;;4.30;99.90;;;;;;5044012;28;20104;-70
2021/04/06 11:24:40;;;;;;;1.20;0.50;;;3.70;99.90;;;;;;5043985;28;20108;-72
2021/04/06 11:27:07;;;;;;;1.13;0.75;;;3.20;99.90;;;;;;5043573;28;20029;-73
2021/04/06 11:29:35;;;;;;;2.50;0.75;;;3.00;99.90;;;;;;5043862;28;20101;-71
2021/04/06 11:32:09;;;;;;;3.10;0.65;;;2.90;99.90;;;;;;5042503;28;20030;-72
2021/04/06 11:34:36;;;;;;;0.28;0.20;;;2.90;99.90;;;;;;5042296;28;20025;-71
2021/04/06 11:37:03;;;;;;;0.85;0.60;;;3.00;99.90;;;;;;5043938;28;20032;-71
2021/04/06 11:39:32;;;;;;;1.38;0.35;;;3.20;99.90;;;;;;5043963;28;20034;-70
2021/04/06 11:41:59;;;;;;;4.70;0.43;;;3.50;99.90;;;;;;5043836;28;20029;-71
2021/04/06 11:44:25;;;;;;;0.47;0.40;;;3.90;99.90;;;;;;5043552;28;20032;-71
2021/04/06 11:46:54;;;;;;;0.93;0.68;;;4.20;99.90;;;;;;5043594;28;20025;-71
2021/04/06 11:49:21;;;;;;;5.32;0.85;;;4.30;99.90;;;;;;5043897;28;20036;-71
2021/04/06 11:51:47;;;;;;;1.95;0.95;;;4.60;99.90;;;;;;5043625;28;20033;-70
2021/04/06 11:54:15;;;;;;;6.68;0.93;;;5.00;99.90;;;;;;5043621;28;20026;-71
2021/04/06 11:56:41;;;;;;;4.82;1.10;;;5.50;99.90;;;;;;5043316;28;20438;-70
2021/04/06 11:59:07;;;;;;;1.10;0.73;;;6.00;99.90;;;;;;5043623;28;20122;-71
2021/04/06 12:01:33;;;;;;;0.73;0.60;;;6.50;99.90;;;;;;5043784;28;20025;-72
2021/04/06 12:03:59;;;;;;;5.60;1.02;;;6.70;99.90;;;;;;5043601;28;20056;-70
2021/04/06 12:06:26;;;;;;;5.93;0.75;;;6.80;99.90;;;;;;5043517;28;20055;-71
2021/04/06 12:08:52;;;;;;;6.47;1.23;;;6.70;99.90;;;;;;5042013;28;20053;-72
2021/04/06 12:11:18;;;;;;;0.65;0.35;;;6.30;99.90;;;;;;5041892;28;20485;-70
2021/04/06 12:13:44;;;;;;;3.65;0.85;;;5.80;99.90;;;;;;5043362;28;20030;-71
2021/04/06 12:16:10;;;;;;;3.00;0.85;;;5.20;99.90;;;;;;5046386;28;20037;-72
2021/04/06 12:18:37;;;;;;;3.25;0.65;;;4.80;99.90;;;;;;5047013;28;20049;-71
2021/04/06 12:21:03;;;;;;;3.20;0.70;;;4.40;99.90;;;;;;5047543;28;20085;-73
2021/04/06 12:23:29;;;;;;;3.47;0.80;;;4.10;99.90;;;;;;5047985;28;20021;-71
2021/04/06 12:25:54;;;;;;;1.92;0.63;;;3.80;99.90;;;;;;5047015;28;20026;-73
2021/04/06 12:28:20;;;;;;;0.52;0.40;;;3.50;99.90;;;;;;5047281;28;20470;-73
2021/04/06 12:30:46;;;;;;;1.10;0.40;;;3.50;99.90;;;;;;5047252;28;20025;-72
2021/04/06 12:33:12;;;;;;;2.50;0.57;;;3.50;99.90;;;;;;5045928;28;20025;-74
2021/04/06 12:35:38;;;;;;;0.52;0.20;;;3.50;99.90;;;;;;5047502;28;20052;-74
2021/04/06 12:38:04;;;;;;;8.30;1.00;;;3.50;99.90;;;;;;5047601;28;20056;-74
2021/04/06 12:40:32;;;;;;;1.10;0.57;;;3.50;99.90;;;;;;5047320;28;20028;-72
2021/04/06 12:42:59;;;;;;;4.93;0.82;;;3.60;99.90;;;;;;5046965;28;20017;-72
2021/04/06 12:45:25;;;;;;;3.45;0.50;;;3.50;99.90;;;;;;5045584;28;20032;-72
2021/04/06 12:47:51;;;;;;;1.17;0.45;;;3.40;99.90;;;;;;5046981;28;20517;-71
2021/04/06 12:50:17;;;;;;;0.73;0.40;;;3.10;99.90;;;;;;5047097;28;20033;-74
2021/04/06 12:52:43;;;;;;;0.60;0.30;;;3.00;99.90;;;;;;5046677;28;20033;-73
2021/04/06 12:55:10;;;;;;;4.25;0.40;;;2.80;99.90;;;;;;5047112;28;20025;-73
2021/04/06 12:57:36;;;;;;;0.50;0.40;;;3.00;99.90;;;;;;5045179;28;20046;-73
2021/04/06 13:00:06;;;;;;;0.55;0.22;;;3.50;99.90;;;;;;5046776;28;20025;-73
2021/04/06 13:02:34;;;;;;;8.45;0.90;;;3.80;99.90;;;;;;5046778;28;20017;-73
2021/04/06 13:05:02;;;;;;;1.63;0.50;;;3.90;99.90;;;;;;5045391;28;20036;-71
2021/04/06 13:07:27;;;;;;;7.07;0.95;;;3.70;99.90;;;;;;5047205;28;20033;-73
2021/04/06 13:09:53;;;;;;;2.90;0.55;;;3.50;99.90;;;;;;5047011;28;20051;-71
2021/04/06 13:12:20;;;;;;;2.28;0.65;;;3.50;99.90;;;;;;5046980;28;20607;-74